TimeEST,TemperatureF,Dew PointF,Humidity,Sea Level PressureIn,VisibilityMPH,Wind Direction,Wind SpeedMPH,Gust SpeedMPH,PrecipitationIn,Events,Conditions,WindDirDegrees,DateUTC
12:56 AM,45.0,19.0,36,30.03,10.0,West,9.2,-,N/A,,Clear,270,2013-01-01 05:56:00
1:56 AM,44.1,19.9,38,30.03,10.0,WSW,6.9,-,N/A,,Clear,250,2013-01-01 06:56:00
2:56 AM,42.1,23.0,47,30.02,10.0,West,3.5,-,N/A,,Clear,270,2013-01-01 07:56:00
3:56 AM,42.1,30.0,62,30.00,10.0,SSE,4.6,-,N/A,,Clear,160,2013-01-01 08:56:00
4:56 AM,37.9,27.0,65,29.99,10.0,Calm,Calm,-,N/A,,Scattered Clouds,0,2013-01-01 09:56:00
5:56 AM,39.9,25.0,55,30.00,10.0,NW,3.5,-,N/A,,Overcast,310,2013-01-01 10:56:00
6:56 AM,39.0,28.9,67,30.00,10.0,Calm,Calm,-,0.00,,Mostly Cloudy,0,2013-01-01 11:56:00
7:56 AM,37.9,30.0,73,30.00,10.0,Calm,Calm,-,0.00,,Scattered Clouds,0,2013-01-01 12:56:00
8:56 AM,37.9,30.0,73,30.00,10.0,Calm,Calm,-,N/A,,Clear,0,2013-01-01 13:56:00
9:56 AM,39.9,32.0,73,30.03,10.0,Calm,Calm,-,N/A,,Mostly Cloudy,0,2013-01-01 14:56:00
10:56 AM,42.1,30.9,65,30.01,10.0,NE,3.5,-,N/A,,Overcast,40,2013-01-01 15:56:00
11:56 AM,44.1,27.0,51,29.99,10.0,Calm,Calm,-,N/A,,Mostly Cloudy,0,2013-01-01 16:56:00
12:56 PM,43.0,28.9,58,29.96,10.0,East,5.8,-,N/A,,Clear,80,2013-01-01 17:56:00
1:56 PM,41.0,30.9,67,29.93,10.0,East,4.6,-,N/A,,Clear,80,2013-01-01 18:56:00
2:56 PM,42.1,28.9,60,29.95,10.0,East,4.6,-,N/A,,Overcast,80,2013-01-01 19:56:00
3:56 PM,42.1,28.9,60,29.96,10.0,Calm,Calm,-,N/A,,Overcast,0,2013-01-01 20:56:00
4:56 PM,42.1,27.0,55,29.97,10.0,Calm,Calm,-,N/A,,Overcast,0,2013-01-01 21:56:00
5:56 PM,41.0,30.0,65,29.99,10.0,Calm,Calm,-,N/A,,Overcast,0,2013-01-01 22:56:00
6:56 PM,41.0,30.0,65,30.00,10.0,Calm,Calm,-,N/A,,Overcast,0,2013-01-01 23:56:00
7:56 PM,41.0,30.0,65,30.00,10.0,North,3.5,-,N/A,,Overcast,10,2013-01-02 00:56:00
8:56 PM,43.0,28.9,58,30.02,10.0,North,3.5,-,N/A,,Overcast,360,2013-01-02 01:56:00
9:56 PM,42.1,28.9,60,30.04,10.0,North,5.8,-,N/A,,Overcast,360,2013-01-02 02:56:00
10:56 PM,42.1,28.9,60,30.03,10.0,NE,5.8,-,N/A,,Overcast,50,2013-01-02 03:56:00
11:56 PM,41.0,28.9,62,30.04,10.0,NNE,4.6,-,N/A,,Overcast,30,2013-01-02 04:56:00